Time;durP1;ratioP1;P1;durP2;ratioP2;P2;SDS_P1;SDS_P2;PMS_P1;PMS_P2;Temp;Humidity;BMP_temperature;BMP_pressure;BME280_temperature;BME280_humidity;BME280_pressure;Samples;Min_cycle;Max_cycle;Signal;HPM_P1;HPM_P2
2024/04/07 00:01:35;;;;;;;9.07;3.65;;;16.10;99.90;;;;;;4973573;28;20129;-82
2024/04/07 00:04:02;;;;;;;11.93;4.55;;;16.10;99.90;;;;;;5017141;28;20048;-82
2024/04/07 00:06:28;;;;;;;6.97;3.80;;;16.20;99.90;;;;;;4970275;28;20309;-81
2024/04/07 00:08:54;;;;;;;7.97;3.15;;;16.10;99.90;;;;;;5020799;28;20038;-82
2024/04/07 00:11:20;;;;;;;4.68;2.95;;;16.10;99.90;;;;;;4984117;28;20042;-81
2024/04/07 00:13:46;;;;;;;6.88;2.65;;;16.10;99.90;;;;;;4983948;28;20052;-82
2024/04/07 00:16:11;;;;;;;6.78;2.85;;;16.10;99.90;;;;;;4989134;28;20113;-82
2024/04/07 00:18:38;;;;;;;5.07;2.33;;;16.10;99.90;;;;;;5003561;28;20801;-82
2024/04/07 00:21:04;;;;;;;6.68;2.58;;;16.10;99.90;;;;;;5014301;28;20034;-82
2024/04/07 00:23:31;;;;;;;6.18;2.50;;;16.10;99.90;;;;;;4969107;28;20041;-81
2024/04/07 00:25:57;;;;;;;5.13;3.03;;;16.10;99.90;;;;;;4972511;28;20449;-82
2024/04/07 00:28:23;;;;;;;7.63;2.72;;;16.10;99.90;;;;;;4969900;28;20038;-81
2024/04/07 00:30:49;;;;;;;5.10;2.85;;;16.10;99.90;;;;;;5005469;28;20072;-82
2024/04/07 00:33:15;;;;;;;7.93;2.63;;;16.10;99.90;;;;;;4968733;28;20542;-82
2024/04/07 00:35:52;;;;;;;6.25;2.55;;;16.10;99.90;;;;;;5019343;28;20510;-80
2024/04/07 00:38:18;;;;;;;6.38;2.92;;;16.10;99.90;;;;;;4970960;28;20050;-82
2024/04/07 00:40:44;;;;;;;4.93;2.30;;;16.10;99.90;;;;;;4987741;28;20041;-82
2024/04/07 00:43:10;;;;;;;9.35;2.72;;;16.10;99.90;;;;;;4982103;28;20096;-82
2024/04/07 00:45:38;;;;;;;6.10;2.40;;;16.00;99.90;;;;;;4980407;28;20506;-82
2024/04/07 00:48:06;;;;;;;5.07;2.63;;;16.00;99.90;;;;;;4986704;28;20132;-81
2024/04/07 00:50:33;;;;;;;6.30;2.30;;;16.00;99.90;;;;;;4972802;28;20121;-82
2024/04/07 00:53:01;;;;;;;7.05;2.50;;;15.90;99.90;;;;;;4970523;28;20073;-82
2024/04/07 00:55:28;;;;;;;8.60;2.60;;;16.00;99.90;;;;;;4985717;28;20053;-81
2024/04/07 00:57:54;;;;;;;7.38;2.75;;;15.90;99.90;;;;;;4972307;28;20053;-82
2024/04/07 01:00:20;;;;;;;9.65;2.70;;;16.00;99.90;;;;;;4967733;28;20042;-82
2024/04/07 01:02:46;;;;;;;12.13;2.25;;;15.90;99.90;;;;;;4969479;28;20544;-82
2024/04/07 01:05:12;;;;;;;8.23;2.53;;;16.00;99.90;;;;;;4997130;28;20081;-82
2024/04/07 01:07:38;;;;;;;5.22;2.00;;;16.00;99.90;;;;;;5013014;28;20045;-82
2024/04/07 01:10:08;;;;;;;9.32;2.50;;;16.10;99.90;;;;;;4971182;28;20619;-81
2024/04/07 01:12:34;;;;;;;6.72;2.30;;;16.20;99.90;;;;;;5015140;28;20041;-82
2024/04/07 01:15:00;;;;;;;8.93;2.03;;;16.30;99.90;;;;;;4970351;28;20060;-81
2024/04/07 01:17:26;;;;;;;7.47;2.05;;;16.50;99.90;;;;;;4965671;28;20065;-82
2024/04/07 01:19:54;;;;;;;11.23;2.22;;;16.60;99.90;;;;;;5002805;28;20046;-82
2024/04/07 01:22:19;;;;;;;5.80;1.95;;;16.60;99.90;;;;;;4979506;28;20076;-82
2024/04/07 01:24:45;;;;;;;8.82;2.30;;;16.70;99.90;;;;;;4967695;28;20038;-82
2024/04/07 01:27:11;;;;;;;8.00;2.30;;;16.70;99.90;;;;;;4966409;28;20773;-83
2024/04/07 01:29:36;;;;;;;4.68;1.90;;;16.80;99.90;;;;;;4972629;28;20041;-83
2024/04/07 01:32:04;;;;;;;9.45;2.75;;;16.80;99.90;;;;;;4987196;28;20050;-82
2024/04/07 01:34:30;;;;;;;8.40;2.88;;;16.80;99.90;;;;;;4980051;28;20068;-82
2024/04/07 01:36:58;;;;;;;5.03;1.98;;;16.70;99.90;;;;;;4970763;28;20495;-81
2024/04/07 01:39:24;;;;;;;6.13;2.05;;;16.70;99.90;;;;;;4971129;28;20120;-82
2024/04/07 01:41:49;;;;;;;5.72;1.95;;;16.70;99.90;;;;;;4968227;28;20121;-82
2024/04/07 01:44:16;;;;;;;6.72;2.47;;;16.70;99.90;;;;;;4987435;28;20053;-81
2024/04/07 01:46:49;;;;;;;7.72;2.20;;;16.80;99.90;;;;;;4980592;28;20053;-82
2024/04/07 01:49:31;;;;;;;6.10;1.80;;;16.80;99.90;;;;;;4972180;28;20050;-83
2024/04/07 01:51:56;;;;;;;4.63;2.25;;;16.70;99.90;;;;;;4967529;28;20050;-81
2024/04/07 01:54:22;;;;;;;7.18;2.10;;;16.70;99.90;;;;;;5016768;28;20510;-81
2024/04/07 01:56:48;;;;;;;8.70;2.65;;;16.70;99.90;;;;;;4982834;28;20404;-81
2024/04/07 01:59:14;;;;;;;8.27;2.10;;;16.60;99.90;;;;;;4987046;28;20069;-81
2024/04/07 02:01:40;;;;;;;6.43;2.40;;;16.60;99.90;;;;;;4985768;28;20112;-80
2024/04/07 02:04:05;;;;;;;6.45;2.40;;;16.50;99.90;;;;;;4973196;28;20126;-80
2024/04/07 02:06:31;;;;;;;7.25;2.45;;;16.50;99.90;;;;;;4965329;28;20410;-81
2024/04/07 02:08:57;;;;;;;7.03;2.00;;;16.50;99.90;;;;;;4983894;28;20046;-82
2024/04/07 02:11:22;;;;;;;10.02;2.30;;;16.50;99.90;;;;;;4968179;28;20042;-81
2024/04/07 02:13:48;;;;;;;7.03;2.25;;;16.40;99.90;;;;;;4980505;28;20046;-81
2024/04/07 02:16:14;;;;;;;7.55;2.40;;;16.40;99.90;;;;;;4977645;28;20049;-81
2024/04/07 02:18:40;;;;;;;6.32;1.70;;;16.30;99.90;;;;;;4984221;28;20047;-81
2024/04/07 02:21:06;;;;;;;6.57;1.77;;;16.30;99.90;;;;;;5009786;28;20056;-81
2024/04/07 02:23:32;;;;;;;5.93;1.60;;;16.20;99.90;;;;;;4981193;28;20049;-82
2024/04/07 02:25:57;;;;;;;7.90;1.90;;;16.10;99.90;;;;;;5018078;28;20626;-82
2024/04/07 02:28:27;;;;;;;5.80;1.70;;;16.10;99.90;;;;;;4969988;28;20397;-82
2024/04/07 02:30:53;;;;;;;8.02;1.92;;;16.00;99.90;;;;;;4972907;28;20073;-81
2024/04/07 02:33:19;;;;;;;9.55;2.17;;;16.00;99.90;;;;;;4975837;28;20787;-82
2024/04/07 02:35:45;;;;;;;7.10;1.92;;;15.90;99.90;;;;;;4971692;28;20045;-81
2024/04/07 02:38:11;;;;;;;5.55;1.63;;;15.90;99.90;;;;;;4984074;28;20054;-82
2024/04/07 02:40:37;;;;;;;5.88;1.80;;;15.80;99.90;;;;;;4983459;28;21401;-80
2024/04/07 02:43:03;;;;;;;5.78;1.73;;;15.90;99.90;;;;;;4986112;28;20048;-82
2024/04/07 02:48:13;;;;;;;4.72;1.50;;;15.70;99.90;;;;;;4986529;28;20387;-82
2024/04/07 02:50:38;;;;;;;8.15;1.98;;;15.60;99.90;;;;;;5004941;28;20800;-80
2024/04/07 02:53:04;;;;;;;6.20;1.85;;;15.60;99.90;;;;;;4972438;28;21240;-81
2024/04/07 02:55:30;;;;;;;5.18;1.40;;;15.60;99.90;;;;;;4991262;28;20034;-81
2024/04/07 02:57:56;;;;;;;5.97;1.63;;;15.50;99.90;;;;;;5018678;28;20053;-81
2024/04/07 03:00:21;;;;;;;6.53;1.58;;;15.50;99.90;;;;;;4986024;28;20053;-81
2024/04/07 03:02:50;;;;;;;6.72;1.33;;;15.40;99.90;;;;;;4976213;28;20128;-82
2024/04/07 03:05:16;;;;;;;5.82;2.13;;;15.40;99.90;;;;;;4972717;28;20045;-81
2024/04/07 03:07:42;;;;;;;4.97;1.25;;;15.40;99.90;;;;;;4971253;28;20125;-82
2024/04/07 03:10:11;;;;;;;6.10;1.48;;;15.30;99.90;;;;;;4992135;28;20095;-81
2024/04/07 03:12:40;;;;;;;4.82;1.40;;;15.30;99.90;;;;;;4974260;28;20104;-82
2024/04/07 03:15:07;;;;;;;6.15;1.40;;;15.20;99.90;;;;;;4986845;28;20917;-82
2024/04/07 03:17:36;;;;;;;5.07;1.30;;;15.20;99.90;;;;;;4973002;28;20054;-82
2024/04/07 03:20:03;;;;;;;4.18;1.10;;;15.20;99.90;;;;;;4991989;28;20117;-82
2024/04/07 03:22:29;;;;;;;5.60;1.60;;;15.20;99.90;;;;;;4973720;28;20042;-82
2024/04/07 03:24:55;;;;;;;4.25;1.10;;;15.20;99.90;;;;;;4990824;28;20560;-83
2024/04/07 03:27:22;;;;;;;5.63;1.73;;;15.20;99.90;;;;;;4971333;28;20058;-82
2024/04/07 03:29:47;;;;;;;5.28;0.98;;;15.20;99.90;;;;;;5023239;28;20057;-80
2024/04/07 03:32:13;;;;;;;4.80;1.50;;;15.20;99.90;;;;;;4973667;28;20037;-82
2024/04/07 03:34:39;;;;;;;7.15;1.45;;;15.10;99.90;;;;;;4974618;28;20054;-81
2024/04/07 03:37:06;;;;;;;7.20;1.70;;;15.10;99.90;;;;;;5018230;28;20465;-81
2024/04/07 03:39:33;;;;;;;5.78;1.27;;;15.10;99.90;;;;;;4989447;28;20052;-81
2024/04/07 03:41:59;;;;;;;5.60;1.70;;;15.00;99.90;;;;;;5003423;28;20034;-80
2024/04/07 03:44:26;;;;;;;6.20;1.40;;;15.00;99.90;;;;;;4971134;28;20097;-81
2024/04/07 03:46:52;;;;;;;6.13;2.33;;;15.00;99.90;;;;;;4988854;28;20037;-81
2024/04/07 03:49:17;;;;;;;5.13;1.38;;;14.90;99.90;;;;;;4987041;28;20691;-81
2024/04/07 03:51:43;;;;;;;8.07;1.50;;;14.90;99.90;;;;;;4988725;28;20046;-80
2024/04/07 03:54:09;;;;;;;5.65;1.60;;;14.90;99.90;;;;;;4986361;28;20050;-81
2024/04/07 03:56:35;;;;;;;4.70;1.73;;;14.80;99.90;;;;;;4982273;28;20052;-81
2024/04/07 03:59:00;;;;;;;2.58;1.20;;;14.80;99.90;;;;;;4987500;28;20052;-81
2024/04/07 04:01:27;;;;;;;4.78;1.30;;;14.80;99.90;;;;;;4969798;28;20053;-81
2024/04/07 04:03:53;;;;;;;7.20;1.40;;;14.80;99.90;;;;;;5016321;28;20054;-81
2024/04/07 04:06:18;;;;;;;3.67;1.20;;;14.80;99.90;;;;;;5021315;28;20104;-81
2024/04/07 04:08:45;;;;;;;4.97;1.30;;;14.80;99.90;;;;;;4992806;28;20597;-80
2024/04/07 04:11:11;;;;;;;4.68;1.40;;;14.80;99.90;;;;;;4992155;28;20061;-80
2024/04/07 04:13:38;;;;;;;5.20;1.10;;;14.80;99.90;;;;;;4999092;28;20101;-80
2024/04/07 04:16:05;;;;;;;5.40;1.83;;;14.80;99.90;;;;;;4960986;28;20091;-80
2024/04/07 04:18:32;;;;;;;5.57;1.42;;;14.70;99.90;;;;;;4993086;28;20069;-80
2024/04/07 04:20:57;;;;;;;6.43;1.90;;;14.70;99.90;;;;;;4962539;28;20064;-81
2024/04/07 04:23:23;;;;;;;5.38;1.45;;;14.70;99.90;;;;;;4963963;28;20038;-81
2024/04/07 04:25:56;;;;;;;4.60;1.20;;;14.70;99.90;;;;;;5000016;28;20042;-81
2024/04/07 04:28:22;;;;;;;4.75;1.20;;;14.70;99.90;;;;;;5007230;28;20137;-81
2024/04/07 04:31:01;;;;;;;3.70;1.00;;;14.70;99.90;;;;;;4966737;28;20074;-80
2024/04/07 04:33:27;;;;;;;5.22;1.30;;;14.70;99.90;;;;;;5003305;28;20047;-81
2024/04/07 04:35:54;;;;;;;4.47;1.20;;;14.70;99.90;;;;;;5023196;28;20061;-80
2024/04/07 04:38:20;;;;;;;7.10;1.60;;;14.70;99.90;;;;;;4975860;28;20092;-80
2024/04/07 04:41:12;;;;;;;5.00;1.30;;;14.70;99.90;;;;;;4995658;28;20058;-80
2024/04/07 04:43:38;;;;;;;3.42;1.02;;;14.70;99.90;;;;;;4966544;28;20066;-80
2024/04/07 04:46:07;;;;;;;4.68;1.08;;;14.70;99.90;;;;;;4965920;28;20057;-79
2024/04/07 04:48:35;;;;;;;3.15;0.88;;;14.60;99.90;;;;;;5014634;28;20116;-80
2024/04/07 04:51:02;;;;;;;3.58;0.90;;;14.60;99.90;;;;;;5022859;28;20065;-80
2024/04/07 04:53:29;;;;;;;3.60;1.15;;;14.60;99.90;;;;;;4987784;28;20437;-79
2024/04/07 04:55:59;;;;;;;2.33;0.60;;;14.60;99.90;;;;;;5011411;28;20112;-79
2024/04/07 04:58:26;;;;;;;3.85;1.10;;;14.60;99.90;;;;;;4979107;28;20050;-79
2024/04/07 05:00:51;;;;;;;3.03;1.00;;;14.60;99.90;;;;;;5000135;28;20050;-80
2024/04/07 05:03:17;;;;;;;3.38;0.93;;;14.50;99.90;;;;;;5004737;28;20056;-79
2024/04/07 05:05:43;;;;;;;2.97;0.95;;;14.50;99.90;;;;;;5011506;28;20050;-79
2024/04/07 05:08:08;;;;;;;2.47;0.88;;;14.50;99.90;;;;;;4963796;28;20424;-79
2024/04/07 05:10:35;;;;;;;2.83;0.60;;;14.40;99.90;;;;;;4977294;28;20545;-79
2024/04/07 05:13:01;;;;;;;2.50;0.70;;;14.40;99.90;;;;;;5007729;28;20038;-80
2024/04/07 05:15:27;;;;;;;5.20;0.95;;;14.30;99.90;;;;;;4961022;28;20133;-80
2024/04/07 05:17:53;;;;;;;2.72;0.70;;;14.40;99.90;;;;;;4969602;28;20052;-79
2024/04/07 05:20:19;;;;;;;2.00;0.85;;;14.30;99.90;;;;;;5014111;28;20045;-80
2024/04/07 05:22:45;;;;;;;2.97;0.50;;;14.40;99.90;;;;;;4980452;28;20077;-79
2024/04/07 05:25:11;;;;;;;2.03;0.73;;;14.40;99.90;;;;;;4969901;28;20057;-79
2024/04/07 05:27:37;;;;;;;3.30;0.80;;;14.40;99.90;;;;;;4970834;28;20061;-80
2024/04/07 05:30:06;;;;;;;1.42;0.57;;;14.40;99.90;;;;;;4973658;28;20037;-80
2024/04/07 05:32:32;;;;;;;1.42;0.50;;;14.30;99.90;;;;;;4969998;28;20101;-79
2024/04/07 05:35:04;;;;;;;3.33;1.10;;;14.40;99.90;;;;;;4971266;28;20465;-80
2024/04/07 05:37:31;;;;;;;1.98;0.50;;;14.30;99.90;;;;;;4981886;28;20439;-79
2024/04/07 05:39:57;;;;;;;1.88;0.60;;;14.40;99.90;;;;;;4990010;28;20046;-79
2024/04/07 05:42:28;;;;;;;1.42;0.43;;;14.30;99.90;;;;;;4996750;28;20052;-79
2024/04/07 05:44:54;;;;;;;3.53;0.90;;;14.40;99.90;;;;;;5013185;28;20050;-79
2024/04/07 05:47:21;;;;;;;2.33;0.60;;;14.40;99.90;;;;;;4990729;28;20053;-79
2024/04/07 05:49:46;;;;;;;4.45;0.60;;;14.40;99.90;;;;;;4994937;28;20715;-79
2024/04/07 05:52:12;;;;;;;2.55;0.50;;;14.40;99.90;;;;;;4994521;28;20133;-79
2024/04/07 05:54:38;;;;;;;2.85;0.57;;;14.40;99.90;;;;;;4985415;28;20047;-79
2024/04/07 05:57:04;;;;;;;3.05;0.70;;;14.40;99.90;;;;;;4967448;28;20046;-78
2024/04/07 05:59:30;;;;;;;2.00;0.70;;;14.50;99.90;;;;;;4983403;28;20129;-79
2024/04/07 06:01:56;;;;;;;2.45;0.60;;;14.50;99.90;;;;;;4962290;28;20050;-80
2024/04/07 06:04:21;;;;;;;2.08;0.75;;;14.60;99.90;;;;;;4973749;28;20053;-78
2024/04/07 06:06:47;;;;;;;3.90;0.68;;;14.60;99.90;;;;;;4983102;28;20062;-80
2024/04/07 06:09:14;;;;;;;2.35;0.60;;;14.70;99.90;;;;;;4973656;28;20117;-78
2024/04/07 06:11:40;;;;;;;6.13;0.98;;;14.70;99.90;;;;;;4979355;28;20439;-79
2024/04/07 06:14:07;;;;;;;3.55;0.73;;;14.80;99.90;;;;;;4990003;28;20053;-79
2024/04/07 06:16:34;;;;;;;2.63;1.00;;;14.80;99.90;;;;;;4960444;28;20042;-80
2024/04/07 06:18:59;;;;;;;1.38;0.60;;;14.80;99.90;;;;;;5005012;28;20038;-79
2024/04/07 06:21:25;;;;;;;2.55;0.82;;;14.80;99.90;;;;;;4976310;28;20042;-80
2024/04/07 06:23:51;;;;;;;2.80;0.60;;;14.80;99.90;;;;;;4990278;28;20053;-80
2024/04/07 06:26:17;;;;;;;3.13;0.80;;;14.80;99.90;;;;;;4978137;28;20601;-80
2024/04/07 06:28:43;;;;;;;3.13;0.73;;;14.80;99.90;;;;;;5009646;28;20041;-79
2024/04/07 06:31:09;;;;;;;1.92;0.73;;;14.90;99.90;;;;;;4979359;28;20406;-79
2024/04/07 06:33:36;;;;;;;2.13;0.45;;;14.90;99.90;;;;;;5002756;28;20490;-80
2024/04/07 06:36:02;;;;;;;2.80;0.65;;;14.90;99.90;;;;;;4991964;28;20080;-80
2024/04/07 06:38:28;;;;;;;3.40;0.80;;;14.90;99.90;;;;;;5005659;28;20050;-80
2024/04/07 06:40:54;;;;;;;2.58;0.70;;;14.90;99.90;;;;;;4990777;28;20570;-80
2024/04/07 06:43:19;;;;;;;2.78;0.43;;;14.90;99.90;;;;;;5000368;28;20039;-79
2024/04/07 06:45:45;;;;;;;1.98;0.70;;;14.90;99.90;;;;;;4969890;28;20054;-79
2024/04/07 06:48:11;;;;;;;3.38;0.80;;;14.90;99.90;;;;;;4963604;28;20054;-81
2024/04/07 06:50:37;;;;;;;3.65;0.98;;;14.80;99.90;;;;;;4986842;28;20080;-80
2024/04/07 06:53:03;;;;;;;2.67;0.60;;;14.80;99.90;;;;;;4991219;28;20046;-80
2024/04/07 06:55:29;;;;;;;2.03;0.60;;;14.70;99.90;;;;;;4980307;28;20045;-80
2024/04/07 06:57:55;;;;;;;2.20;0.70;;;14.70;99.90;;;;;;5016944;28;20056;-81
2024/04/07 07:00:21;;;;;;;3.92;0.60;;;14.80;99.90;;;;;;4995410;28;20333;-80
2024/04/07 07:02:47;;;;;;;2.95;0.77;;;14.80;99.90;;;;;;4989183;28;20085;-79
2024/04/07 07:05:13;;;;;;;2.50;0.55;;;15.00;99.90;;;;;;4983900;28;20046;-80
2024/04/07 07:07:38;;;;;;;4.28;0.52;;;15.10;99.90;;;;;;4986604;28;20609;-80
2024/04/07 07:10:05;;;;;;;3.92;0.88;;;15.20;99.90;;;;;;4996294;28;20470;-80
2024/04/07 07:12:31;;;;;;;3.88;0.90;;;15.30;99.90;;;;;;4992791;28;20043;-79
2024/04/07 07:14:56;;;;;;;3.42;0.68;;;15.40;99.90;;;;;;4999049;28;20038;-80
2024/04/07 07:17:23;;;;;;;2.95;0.82;;;15.60;99.90;;;;;;4997762;28;20134;-78
2024/04/07 07:19:49;;;;;;;3.63;0.70;;;15.70;99.90;;;;;;4999478;28;20074;-80
2024/04/07 07:22:15;;;;;;;3.03;0.98;;;15.80;99.90;;;;;;4972288;28;20402;-79
2024/04/07 07:24:41;;;;;;;2.80;0.90;;;15.90;99.90;;;;;;5005854;28;20038;-82
2024/04/07 07:27:07;;;;;;;2.78;0.80;;;16.00;99.90;;;;;;4980314;28;20070;-80
2024/04/07 07:29:32;;;;;;;4.00;0.88;;;16.10;99.90;;;;;;4971085;28;20054;-79
2024/04/07 07:31:58;;;;;;;2.90;0.82;;;16.20;99.90;;;;;;4968957;28;20053;-80
2024/04/07 07:34:24;;;;;;;3.03;0.90;;;16.20;99.90;;;;;;4972944;28;20133;-80
2024/04/07 07:36:53;;;;;;;3.92;0.80;;;16.30;99.90;;;;;;4976508;28;20050;-80
2024/04/07 07:39:19;;;;;;;3.40;0.82;;;16.40;99.90;;;;;;4996052;28;20057;-81
2024/04/07 07:41:46;;;;;;;3.85;0.70;;;16.50;99.90;;;;;;4959296;28;20050;-80
2024/04/07 07:44:12;;;;;;;3.08;0.90;;;16.50;99.90;;;;;;5011677;28;20058;-81
2024/04/07 07:46:38;;;;;;;2.92;0.90;;;16.60;99.90;;;;;;4974957;28;20044;-80
2024/04/07 07:49:06;;;;;;;2.70;0.90;;;16.60;99.90;;;;;;4970932;28;20038;-81
2024/04/07 07:51:33;;;;;;;2.92;0.98;;;16.60;99.90;;;;;;4970571;28;20076;-79
2024/04/07 07:53:59;;;;;;;3.70;1.00;;;16.70;99.90;;;;;;4974783;28;20040;-81
2024/04/07 07:56:25;;;;;;;5.10;1.35;;;16.80;99.90;;;;;;4969427;28;20045;-81
2024/04/07 07:58:54;;;;;;;2.92;1.17;;;16.80;99.90;;;;;;4972310;28;20073;-80
2024/04/07 08:01:19;;;;;;;3.75;1.13;;;16.90;99.90;;;;;;4984911;28;20046;-79
2024/04/07 08:03:45;;;;;;;2.40;0.90;;;17.00;99.90;;;;;;4982085;28;20057;-80
2024/04/07 08:06:11;;;;;;;3.53;1.00;;;17.10;99.90;;;;;;5013371;28;20112;-79
2024/04/07 08:08:39;;;;;;;4.25;1.10;;;17.20;99.90;;;;;;5010741;28;20077;-80
2024/04/07 08:11:11;;;;;;;3.53;1.10;;;17.30;99.90;;;;;;5009848;28;20117;-79
2024/04/07 08:13:40;;;;;;;3.28;0.98;;;17.40;99.90;;;;;;4997028;28;20045;-80
2024/04/07 08:16:07;;;;;;;4.63;1.10;;;17.40;99.90;;;;;;4983409;28;20053;-78
2024/04/07 08:18:36;;;;;;;3.97;0.90;;;17.50;99.90;;;;;;4970152;28;20042;-80
2024/04/07 08:21:02;;;;;;;2.65;0.90;;;17.60;99.90;;;;;;5013787;28;20046;-79
2024/04/07 08:23:31;;;;;;;3.45;0.88;;;17.60;99.90;;;;;;4964012;28;20104;-80
2024/04/07 08:26:00;;;;;;;3.88;0.90;;;17.60;99.90;;;;;;4996507;28;20486;-79
2024/04/07 08:28:26;;;;;;;3.10;0.90;;;17.60;99.90;;;;;;4973916;28;20050;-79
2024/04/07 08:30:52;;;;;;;4.68;0.90;;;17.60;99.90;;;;;;4988090;28;20060;-80
2024/04/07 08:33:18;;;;;;;2.45;0.80;;;17.60;99.90;;;;;;4969791;28;20050;-79
2024/04/07 08:35:46;;;;;;;3.70;0.80;;;17.60;99.90;;;;;;4992582;28;20116;-80
2024/04/07 08:38:11;;;;;;;3.25;0.75;;;17.60;99.90;;;;;;5012279;28;21058;-80
2024/04/07 08:40:40;;;;;;;1.88;0.73;;;17.70;99.90;;;;;;4985411;28;20074;-79
2024/04/07 08:43:08;;;;;;;3.77;0.80;;;17.80;99.90;;;;;;5007818;28;20050;-80
2024/04/07 08:45:36;;;;;;;2.65;0.80;;;18.00;99.90;;;;;;4970682;28;20126;-80
2024/04/07 08:48:04;;;;;;;4.40;0.80;;;18.00;99.90;;;;;;4983571;28;20064;-81
2024/04/07 08:50:33;;;;;;;3.78;1.05;;;18.10;99.90;;;;;;4959713;28;20050;-79
2024/04/07 08:53:02;;;;;;;3.78;1.00;;;18.20;99.90;;;;;;4984869;28;20054;-80
2024/04/07 08:55:28;;;;;;;2.78;0.85;;;18.30;99.90;;;;;;4994030;28;20054;-80
2024/04/07 08:57:54;;;;;;;3.00;0.80;;;18.30;99.90;;;;;;4997073;28;20510;-80
2024/04/07 09:00:21;;;;;;;4.03;1.08;;;18.30;99.90;;;;;;4962144;28;20046;-79
2024/04/07 09:02:49;;;;;;;4.32;0.80;;;18.10;99.90;;;;;;5013572;28;20042;-80
2024/04/07 09:05:14;;;;;;;4.07;1.30;;;17.90;99.90;;;;;;4995337;28;20556;-81
2024/04/07 09:07:40;;;;;;;3.95;1.10;;;17.80;99.90;;;;;;4972246;28;20120;-81
2024/04/07 09:10:06;;;;;;;2.85;0.82;;;17.90;99.90;;;;;;4961882;28;20089;-82
2024/04/07 09:12:32;;;;;;;2.17;0.80;;;18.10;99.90;;;;;;4965015;28;20054;-80
2024/04/07 09:14:57;;;;;;;3.30;0.95;;;18.20;99.90;;;;;;4972600;28;20081;-82
2024/04/07 09:17:27;;;;;;;3.17;0.80;;;18.40;99.90;;;;;;4974827;28;20046;-80
2024/04/07 09:19:53;;;;;;;;;;;18.60;99.90;;;;;;4968222;28;20487;-80
2024/04/07 09:22:20;;;;;;;3.45;0.75;;;18.80;99.90;;;;;;4999039;28;19952;-80
2024/04/07 09:24:48;;;;;;;3.90;1.10;;;19.00;99.90;;;;;;4975666;28;20045;-81
2024/04/07 09:27:17;;;;;;;4.18;1.20;;;19.20;99.90;;;;;;4998614;28;20046;-81
2024/04/07 09:29:46;;;;;;;3.45;1.00;;;19.30;99.90;;;;;;4973617;28;20092;-79
2024/04/07 09:32:21;;;;;;;4.13;0.85;;;19.30;99.90;;;;;;4976255;28;20081;-79
2024/04/07 09:34:56;;;;;;;6.05;1.10;;;19.20;99.90;;;;;;4992468;28;20042;-79
2024/04/07 09:37:43;;;;;;;4.55;1.25;;;19.10;99.90;;;;;;4981562;28;20053;-81
2024/04/07 09:40:11;;;;;;;4.97;1.35;;;19.00;99.90;;;;;;4979780;28;20061;-80
2024/04/07 09:42:58;;;;;;;2.72;0.90;;;19.00;99.90;;;;;;4969547;28;20058;-80
2024/04/07 09:45:50;;;;;;;2.88;0.80;;;19.00;99.90;;;;;;4981680;28;20091;-79
2024/04/07 09:48:22;;;;;;;6.60;1.35;;;19.10;99.90;;;;;;4964614;28;20058;-82
2024/04/07 09:51:19;;;;;;;5.47;0.90;;;19.10;99.90;;;;;;5010392;28;20609;-82
2024/04/07 09:53:58;;;;;;;3.35;1.00;;;19.20;99.90;;;;;;4968980;28;20073;-80
2024/04/07 09:56:29;;;;;;;3.30;0.90;;;19.30;99.90;;;;;;4988146;28;20137;-80
2024/04/07 09:58:55;;;;;;;3.83;0.82;;;19.40;99.90;;;;;;5011214;28;20084;-82
2024/04/07 10:01:21;;;;;;;4.28;0.90;;;19.40;99.90;;;;;;4977057;28;20050;-81
2024/04/07 10:03:51;;;;;;;2.60;0.77;;;19.40;99.90;;;;;;5014894;28;20105;-82
2024/04/07 10:06:17;;;;;;;;;;;19.40;99.90;;;;;;5002554;28;20045;-82
2024/04/07 10:08:44;;;;;;;5.32;1.20;;;19.30;99.90;;;;;;4975813;28;19925;-81
2024/04/07 10:11:19;;;;;;;1.98;0.70;;;19.40;99.90;;;;;;5001429;28;20057;-80
2024/04/07 10:13:46;;;;;;;5.25;0.95;;;19.50;99.90;;;;;;5003134;28;20038;-81
2024/04/07 10:16:15;;;;;;;4.13;0.98;;;19.70;99.90;;;;;;4963760;28;20065;-81
2024/04/07 10:18:46;;;;;;;2.78;0.75;;;19.80;99.90;;;;;;4982094;28;20701;-82
2024/04/07 10:21:13;;;;;;;5.18;1.00;;;19.70;99.90;;;;;;4995562;28;20069;-80
2024/04/07 10:23:39;;;;;;;3.00;0.93;;;19.50;99.90;;;;;;4983840;28;20081;-81
2024/04/07 10:26:07;;;;;;;2.53;0.70;;;19.30;99.90;;;;;;4977554;28;20089;-81
2024/04/07 10:28:46;;;;;;;3.25;0.70;;;19.20;99.90;;;;;;4959494;28;20047;-81
2024/04/07 10:31:11;;;;;;;2.45;1.00;;;19.20;99.90;;;;;;4991877;28;20058;-81
2024/04/07 10:33:47;;;;;;;3.95;0.68;;;19.30;99.90;;;;;;4978267;28;20097;-82
2024/04/07 10:36:16;;;;;;;3.38;0.82;;;19.50;97.50;;;;;;4976142;28;20502;-81
2024/04/07 10:38:51;;;;;;;3.23;0.60;;;19.50;98.10;;;;;;4984750;28;20084;-82
2024/04/07 10:41:26;;;;;;;2.63;0.70;;;19.60;96.90;;;;;;5012384;28;20080;-81
2024/04/07 10:43:52;;;;;;;2.80;0.70;;;19.60;98.30;;;;;;4970278;28;20049;-82
2024/04/07 10:46:19;;;;;;;3.83;0.68;;;19.70;96.80;;;;;;5012207;28;20076;-84
2024/04/07 10:48:46;;;;;;;2.95;0.60;;;19.80;97.90;;;;;;4964823;28;20089;-82
2024/04/07 10:51:16;;;;;;;2.45;0.77;;;19.90;95.90;;;;;;4986711;28;20054;-83
2024/04/07 10:53:43;;;;;;;3.28;0.90;;;20.00;95.50;;;;;;4969705;28;20055;-82
2024/04/07 10:56:09;;;;;;;2.60;0.75;;;20.10;94.90;;;;;;5014632;28;20125;-80
2024/04/07 10:58:35;;;;;;;5.13;0.82;;;20.20;94.50;;;;;;4996719;28;20060;-83
2024/04/07 11:01:01;;;;;;;3.13;0.95;;;20.30;93.30;;;;;;5002503;28;20049;-80
2024/04/07 11:03:30;;;;;;;3.17;0.80;;;20.40;93.30;;;;;;4988978;28;20034;-81
2024/04/07 11:06:00;;;;;;;5.50;1.15;;;20.30;93.00;;;;;;4961974;28;20052;-82
2024/04/07 11:08:27;;;;;;;3.60;0.95;;;20.30;92.70;;;;;;5011184;28;20126;-81
2024/04/07 11:10:59;;;;;;;1.95;0.70;;;20.20;93.50;;;;;;4968481;28;20045;-83
2024/04/07 11:13:26;;;;;;;2.75;0.82;;;20.10;93.50;;;;;;4969511;28;20142;-82
2024/04/07 11:15:52;;;;;;;3.92;0.93;;;20.00;94.70;;;;;;4969624;28;20062;-82
2024/04/07 11:18:23;;;;;;;3.90;0.65;;;20.10;93.80;;;;;;4991607;28;20545;-84
2024/04/07 11:20:49;;;;;;;4.13;1.27;;;20.20;93.20;;;;;;4974606;28;20133;-84
2024/04/07 11:23:16;;;;;;;4.35;0.80;;;20.30;92.70;;;;;;4970340;28;20060;-83
2024/04/07 11:25:44;;;;;;;2.95;0.90;;;20.50;92.50;;;;;;4971153;28;20065;-84
2024/04/07 11:28:12;;;;;;;3.45;1.00;;;20.50;92.60;;;;;;4975630;28;20054;-82
2024/04/07 11:30:48;;;;;;;3.10;0.88;;;20.60;92.00;;;;;;4975365;28;20049;-84
2024/04/07 11:33:15;;;;;;;4.35;0.88;;;20.70;92.70;;;;;;4973536;28;20457;-84
2024/04/07 11:35:44;;;;;;;4.25;0.70;;;20.90;91.80;;;;;;4967799;28;20136;-84
2024/04/07 11:38:14;;;;;;;4.50;0.80;;;20.90;89.20;;;;;;4974045;28;20077;-83
2024/04/07 11:40:40;;;;;;;3.88;0.90;;;20.90;89.80;;;;;;4972742;28;20406;-84
2024/04/07 11:43:07;;;;;;;5.07;1.08;;;20.90;91.10;;;;;;4988982;28;20057;-82
2024/04/07 11:45:33;;;;;;;2.30;0.75;;;21.00;91.00;;;;;;5003409;28;20498;-83
2024/04/07 11:48:03;;;;;;;2.80;0.68;;;21.00;89.60;;;;;;4990156;28;20046;-85
2024/04/07 11:50:30;;;;;;;3.83;0.60;;;21.10;84.20;;;;;;4990749;28;20148;-81
2024/04/07 11:52:56;;;;;;;3.97;0.80;;;21.10;84.30;;;;;;4988311;28;20046;-83
2024/04/07 11:55:22;;;;;;;2.25;0.70;;;21.00;85.50;;;;;;5003250;28;20056;-83
2024/04/07 11:57:48;;;;;;;3.70;0.68;;;21.00;88.50;;;;;;4974720;28;20038;-83
2024/04/07 12:00:14;;;;;;;3.95;0.95;;;21.10;86.40;;;;;;4970567;28;20046;-82
2024/04/07 12:02:40;;;;;;;2.75;0.70;;;21.10;87.20;;;;;;4992074;28;20044;-82
2024/04/07 12:05:07;;;;;;;5.53;0.80;;;21.10;88.30;;;;;;5023079;28;20049;-82
2024/04/07 12:07:34;;;;;;;4.55;0.98;;;21.10;87.60;;;;;;4989036;28;20438;-82
2024/04/07 12:10:00;;;;;;;2.42;0.80;;;21.00;87.80;;;;;;5005231;28;20049;-84
2024/04/07 12:12:30;;;;;;;4.68;1.23;;;21.00;88.50;;;;;;4975424;28;20054;-84
2024/04/07 12:15:05;;;;;;;3.67;0.88;;;21.10;85.90;;;;;;5002171;28;20045;-85
2024/04/07 12:17:31;;;;;;;3.88;1.17;;;21.10;87.00;;;;;;4986622;28;20045;-82
2024/04/07 12:19:57;;;;;;;2.80;0.88;;;21.10;87.30;;;;;;4987053;28;20066;-83
2024/04/07 12:22:36;;;;;;;3.17;1.00;;;21.20;86.90;;;;;;4972136;28;20084;-84
2024/04/07 12:25:05;;;;;;;4.07;1.08;;;21.20;88.30;;;;;;4989332;28;20572;-82
2024/04/07 12:27:34;;;;;;;5.07;0.90;;;21.30;86.80;;;;;;5020523;28;20154;-83
2024/04/07 12:30:00;;;;;;;3.73;0.87;;;21.30;83.90;;;;;;4971431;28;20050;-82
2024/04/07 12:32:26;;;;;;;4.60;1.08;;;21.30;83.20;;;;;;4973145;28;20042;-84
2024/04/07 12:34:54;;;;;;;2.92;0.77;;;21.20;82.20;;;;;;4972294;28;20144;-84
2024/04/07 12:37:20;;;;;;;3.08;1.10;;;21.20;83.20;;;;;;4989853;28;20057;-82
2024/04/07 12:39:46;;;;;;;4.18;1.00;;;21.20;82.80;;;;;;4970450;28;20034;-82
2024/04/07 12:42:12;;;;;;;3.47;0.73;;;21.20;83.40;;;;;;4972701;28;20115;-83
2024/04/07 12:44:38;;;;;;;1.65;0.70;;;21.20;82.20;;;;;;4973021;28;20482;-84
2024/04/07 12:47:04;;;;;;;1.95;0.70;;;21.10;82.70;;;;;;4973067;28;20068;-82
2024/04/07 12:49:30;;;;;;;2.45;0.70;;;21.10;83.90;;;;;;4990827;28;20045;-83
2024/04/07 12:51:55;;;;;;;2.28;0.77;;;21.20;83.50;;;;;;4986738;28;20053;-83